Time;durP1;ratioP1;P1;durP2;ratioP2;P2;SDS_P1;SDS_P2;PMS_P1;PMS_P2;Temp;Humidity;BMP_temperature;BMP_pressure;BME280_temperature;BME280_humidity;BME280_pressure;Samples;Min_cycle;Max_cycle;Signal;HPM_P1;HPM_P2
2022/01/05 00:02:17;;;;;;;11.57;4.45;;;;;;;13.55;72.81;101462.34;5069576;28;20047;-74
2022/01/05 00:04:45;;;;;;;13.95;6.47;;;;;;;13.52;72.78;101458.75;5064089;28;20553;-74
2022/01/05 00:07:13;;;;;;;9.32;5.30;;;;;;;13.43;72.93;101448.00;5068866;28;20122;-74
2022/01/05 00:09:41;;;;;;;12.45;5.05;;;;;;;13.37;73.07;101456.78;5051000;28;20127;-74
2022/01/05 00:12:10;;;;;;;7.30;3.40;;;;;;;13.27;72.90;101460.13;5065346;28;20711;-75
2022/01/05 00:14:38;;;;;;;8.32;5.03;;;;;;;13.18;73.14;101461.75;5066907;28;20044;-74
2022/01/05 00:17:08;;;;;;;11.68;6.22;;;;;;;13.20;73.00;101462.66;5067413;28;20025;-74
2022/01/05 00:19:36;;;;;;;12.10;6.88;;;;;;;13.13;73.06;101464.31;5067827;28;20050;-74
2022/01/05 00:22:04;;;;;;;17.67;9.10;;;;;;;13.15;72.99;101465.22;5068135;28;20063;-74
2022/01/05 00:24:32;;;;;;;13.80;7.78;;;;;;;13.17;72.85;101479.41;5069131;28;20496;-74
2022/01/05 00:27:00;;;;;;;11.65;3.88;;;;;;;13.19;72.85;101467.09;5069561;28;20045;-74
2022/01/05 00:29:27;;;;;;;9.88;4.40;;;;;;;13.18;72.83;101467.94;5031494;28;20115;-74
2022/01/05 00:31:55;;;;;;;12.75;5.18;;;;;;;13.07;72.82;101465.06;5048206;28;20102;-74
2022/01/05 00:34:24;;;;;;;40.35;18.02;;;;;;;13.02;72.83;101472.06;5047864;28;20073;-71
2022/01/05 00:36:52;;;;;;;18.88;9.18;;;;;;;13.01;72.92;101466.72;5052678;28;20041;-74
2022/01/05 00:39:20;;;;;;;33.45;14.88;;;;;;;12.94;72.88;101470.13;5070236;28;20128;-74
2022/01/05 00:41:47;;;;;;;20.08;8.18;;;;;;;12.72;73.11;101472.44;5071004;28;20048;-74
2022/01/05 00:44:15;;;;;;;25.33;10.90;;;;;;;12.67;73.43;101475.81;5071557;28;20036;-74
2022/01/05 00:46:43;;;;;;;35.80;17.25;;;;;;;12.67;73.35;101465.22;5071168;28;20520;-74
2022/01/05 00:49:10;;;;;;;24.40;10.95;;;;;;;12.65;73.32;101472.28;5070753;28;20033;-74
2022/01/05 00:51:39;;;;;;;20.45;8.57;;;;;;;12.57;73.50;101477.44;5071257;28;20044;-74
2022/01/05 00:54:07;;;;;;;10.73;4.80;;;;;;;12.56;73.63;101475.66;5071247;28;20036;-74
2022/01/05 00:56:35;;;;;;;12.13;4.28;;;;;;;12.59;73.76;101474.81;5070631;28;20049;-74
2022/01/05 00:59:04;;;;;;;9.40;3.80;;;;;;;12.72;73.56;101476.84;5054569;28;20052;-74
2022/01/05 01:01:32;;;;;;;16.98;8.20;;;;;;;12.75;73.42;101476.88;5071240;28;20451;-74
2022/01/05 01:04:00;;;;;;;12.15;4.38;;;;;;;12.76;73.41;101474.25;5070997;28;20050;-75
2022/01/05 01:06:27;;;;;;;10.10;5.03;;;;;;;12.80;73.73;101475.19;5055367;28;20044;-74
2022/01/05 01:08:57;;;;;;;10.23;3.55;;;;;;;12.83;73.76;101477.91;5072123;28;20040;-74
2022/01/05 01:11:24;;;;;;;6.85;3.00;;;;;;;12.80;73.80;101472.53;5071773;28;20037;-74
2022/01/05 01:13:52;;;;;;;7.03;3.60;;;;;;;12.79;73.84;101470.78;5071127;28;20131;-73
2022/01/05 01:16:20;;;;;;;11.48;3.05;;;;;;;12.78;73.71;101467.25;5072150;28;20110;-74
2022/01/05 01:18:48;;;;;;;7.53;3.05;;;;;;;12.77;73.87;101465.44;5070105;28;20049;-73
2022/01/05 01:21:16;;;;;;;11.90;3.83;;;;;;;12.77;74.25;101468.09;5070822;28;20516;-74
2022/01/05 01:23:54;;;;;;;9.05;3.70;;;;;;;12.84;74.16;101466.44;5070711;28;20055;-74
2022/01/05 01:26:25;;;;;;;10.52;2.92;;;;;;;12.84;74.13;101455.84;5072196;28;20044;-74
2022/01/05 01:28:53;;;;;;;7.45;3.22;;;;;;;12.89;74.11;101459.47;5070754;28;20047;-74
2022/01/05 01:31:21;;;;;;;9.75;4.53;;;;;;;12.93;73.90;101456.00;5070408;28;20052;-74
2022/01/05 01:33:49;;;;;;;10.68;5.03;;;;;;;12.94;73.84;101452.47;5063719;28;20568;-74
2022/01/05 01:36:17;;;;;;;10.32;5.07;;;;;;;12.94;73.76;101447.19;5051904;28;20041;-73
2022/01/05 01:38:48;;;;;;;18.50;9.70;;;;;;;12.97;73.69;101455.19;5049720;28;20048;-74
2022/01/05 01:41:16;;;;;;;19.70;10.02;;;;;;;12.97;73.49;101456.94;5048856;28;20130;-74
2022/01/05 01:43:46;;;;;;;9.60;3.53;;;;;;;12.89;73.53;101450.63;5051807;28;20290;-74
2022/01/05 01:46:14;;;;;;;8.73;3.17;;;;;;;12.78;73.64;101451.34;5051082;28;20128;-73
2022/01/05 01:48:41;;;;;;;8.73;3.30;;;;;;;12.69;73.83;101447.63;5050301;28;20041;-74
2022/01/05 01:51:09;;;;;;;6.75;3.13;;;;;;;12.61;74.20;101450.13;5051537;28;20044;-74
2022/01/05 01:53:37;;;;;;;8.10;3.00;;;;;;;12.59;74.12;101443.03;5050061;28;20065;-73
2022/01/05 01:56:07;;;;;;;7.88;3.28;;;;;;;12.55;74.18;101450.00;5048807;28;20045;-74
2022/01/05 01:58:36;;;;;;;8.02;3.63;;;;;;;12.54;74.19;101447.34;5048635;28;20130;-74
2022/01/05 02:01:05;;;;;;;7.93;3.15;;;;;;;12.54;74.17;101456.16;5050165;28;20060;-73
2022/01/05 02:03:33;;;;;;;7.13;3.05;;;;;;;12.51;74.17;101448.19;5050393;28;20045;-74
2022/01/05 02:06:01;;;;;;;7.40;3.28;;;;;;;12.50;74.36;101449.06;5051329;28;20610;-74
2022/01/05 02:08:29;;;;;;;5.43;2.83;;;;;;;12.50;74.37;101442.84;5050563;28;20037;-73
2022/01/05 02:10:57;;;;;;;7.53;3.10;;;;;;;12.45;74.42;101441.88;5051651;28;20067;-73
2022/01/05 02:13:25;;;;;;;8.57;2.72;;;;;;;12.41;74.65;101445.31;5049695;28;20052;-73
2022/01/05 02:15:52;;;;;;;7.03;3.08;;;;;;;12.41;74.64;101442.66;5051298;28;20128;-73
2022/01/05 02:21:06;;;;;;;5.80;2.80;;;;;;;12.40;74.75;101447.09;5048351;28;20080;-73
2022/01/05 02:23:35;;;;;;;9.25;3.15;;;;;;;12.38;74.85;101440.88;5050949;28;20045;-73
2022/01/05 02:26:04;;;;;;;8.27;3.03;;;;;;;12.38;74.81;101432.94;5049574;28;20041;-74
2022/01/05 02:28:31;;;;;;;11.40;5.07;;;;;;;12.40;74.78;101440.91;5050498;28;20041;-74
2022/01/05 02:30:59;;;;;;;10.05;5.03;;;;;;;12.38;74.66;101443.53;5049340;28;20448;-73
2022/01/05 02:33:27;;;;;;;9.95;4.35;;;;;;;12.36;74.65;101440.84;5049020;28;20533;-73
2022/01/05 02:35:54;;;;;;;9.65;4.05;;;;;;;12.36;74.66;101442.59;5050639;28;20057;-73
2022/01/05 02:38:24;;;;;;;13.63;9.02;;;;;;;12.35;74.66;101436.41;5050177;28;20580;-73
2022/01/05 02:40:53;;;;;;;24.83;19.98;;;;;;;12.30;74.68;101434.53;5056509;28;20044;-73
2022/01/05 02:43:21;;;;;;;42.80;38.63;;;;;;;12.17;74.66;101433.41;5052396;28;20045;-73
2022/01/05 02:45:48;;;;;;;36.38;32.80;;;;;;;12.03;74.99;101426.03;5070768;28;20055;-73
2022/01/05 02:48:16;;;;;;;11.25;7.90;;;;;;;11.99;75.16;101419.81;5069177;28;20114;-73
2022/01/05 02:50:44;;;;;;;25.48;20.15;;;;;;;12.04;75.12;101415.50;5069384;28;20118;-73
2022/01/05 02:53:11;;;;;;;21.33;14.75;;;;;;;12.10;74.97;101415.63;5068293;28;20389;-74
2022/01/05 02:55:41;;;;;;;12.73;6.57;;;;;;;12.06;74.87;101416.44;5068231;28;20059;-73
2022/01/05 02:58:08;;;;;;;10.10;7.05;;;;;;;11.91;75.08;101422.28;5069994;28;20040;-74
2022/01/05 03:00:37;;;;;;;11.18;5.68;;;;;;;12.03;75.36;101420.75;5070380;28;20550;-73
2022/01/05 03:03:05;;;;;;;14.35;4.88;;;;;;;12.10;75.33;101415.63;5068702;28;20036;-74
2022/01/05 03:05:32;;;;;;;6.03;3.60;;;;;;;12.15;75.45;101424.53;5053019;28;20055;-74
2022/01/05 03:08:00;;;;;;;10.27;3.50;;;;;;;12.19;75.56;101421.09;5069625;28;20090;-73
2022/01/05 03:10:28;;;;;;;8.43;3.38;;;;;;;12.22;75.46;101421.16;5050529;28;20051;-73
2022/01/05 03:12:57;;;;;;;8.30;3.70;;;;;;;12.16;75.10;101421.03;5048978;28;20041;-73
2022/01/05 03:15:24;;;;;;;13.75;6.60;;;;;;;12.02;75.38;101432.19;5048432;28;20532;-73
2022/01/05 03:17:52;;;;;;;20.58;9.48;;;;;;;11.92;75.43;101423.19;5047902;28;20128;-73
2022/01/05 03:20:20;;;;;;;14.25;7.15;;;;;;;11.78;75.44;101422.91;5050016;28;20091;-73
2022/01/05 03:22:48;;;;;;;20.35;9.82;;;;;;;11.68;75.66;101422.66;5049570;28;20090;-73
2022/01/05 03:25:18;;;;;;;8.63;3.80;;;;;;;11.69;76.09;101420.00;5049317;28;20040;-73
2022/01/05 03:27:47;;;;;;;10.02;3.63;;;;;;;11.77;76.01;101421.09;5048396;28;20045;-73
2022/01/05 03:30:19;;;;;;;6.97;2.92;;;;;;;11.84;75.94;101416.84;5049153;28;20137;-73
2022/01/05 03:33:07;;;;;;;9.68;5.47;;;;;;;11.82;75.79;101421.19;5049251;28;20052;-73
2022/01/05 03:35:36;;;;;;;12.82;9.02;;;;;;;11.82;75.70;101421.19;5048451;28;20450;-74
2022/01/05 03:38:05;;;;;;;23.35;20.85;;;;;;;11.85;75.64;101422.16;5063032;28;20492;-74
2022/01/05 03:40:36;;;;;;;23.75;18.30;;;;;;;11.84;75.79;101420.38;5068602;28;20036;-74
2022/01/05 03:43:05;;;;;;;24.33;21.27;;;;;;;11.78;75.83;101417.59;5069550;28;20048;-73
2022/01/05 03:45:35;;;;;;;22.15;19.67;;;;;;;11.72;75.96;101420.09;5067495;28;20499;-73
2022/01/05 03:48:03;;;;;;;32.22;28.90;;;;;;;11.61;76.12;101424.28;5069023;28;20032;-74
2022/01/05 03:50:31;;;;;;;16.02;8.43;;;;;;;11.61;76.25;101423.38;5067770;28;20061;-75
2022/01/05 03:52:58;;;;;;;14.45;6.68;;;;;;;11.67;76.12;101418.22;5067752;28;20399;-73
2022/01/05 03:55:26;;;;;;;13.95;5.30;;;;;;;11.73;76.11;101424.53;5069548;28;20145;-73
2022/01/05 03:57:54;;;;;;;8.48;3.67;;;;;;;11.76;75.79;101426.34;5069422;28;20443;-73
2022/01/05 04:00:21;;;;;;;8.20;3.50;;;;;;;11.79;75.74;101435.28;5069065;28;20060;-73
2022/01/05 04:02:51;;;;;;;7.00;2.97;;;;;;;11.84;75.69;101436.25;5051512;28;20060;-74
2022/01/05 04:05:19;;;;;;;7.20;3.63;;;;;;;11.83;75.65;101439.75;5067765;28;20495;-73
2022/01/05 04:07:46;;;;;;;6.43;3.53;;;;;;;11.82;75.77;101439.72;5067887;28;20040;-73
2022/01/05 04:10:14;;;;;;;10.38;3.35;;;;;;;11.84;75.76;101441.53;5069210;28;20072;-73
2022/01/05 04:12:42;;;;;;;6.55;3.13;;;;;;;11.83;75.85;101447.69;5067193;28;20044;-73
2022/01/05 04:15:11;;;;;;;9.68;3.85;;;;;;;11.83;75.86;101450.34;5068140;28;20044;-73
2022/01/05 04:17:38;;;;;;;17.10;6.82;;;;;;;11.84;75.92;101452.13;5067703;28;20048;-73
2022/01/05 04:20:09;;;;;;;8.98;4.05;;;;;;;11.89;75.87;101453.09;5067260;28;20075;-73
2022/01/05 04:22:37;;;;;;;11.65;4.30;;;;;;;11.89;75.86;101457.50;5068637;28;20044;-73
2022/01/05 04:25:06;;;;;;;10.88;4.80;;;;;;;11.87;75.90;101456.59;5068872;28;20428;-73
2022/01/05 04:27:34;;;;;;;12.90;3.40;;;;;;;11.87;76.00;101465.44;5067272;28;20052;-74
2022/01/05 04:30:02;;;;;;;9.77;5.25;;;;;;;11.88;76.09;101461.91;5067280;28;20036;-73
2022/01/05 04:32:30;;;;;;;21.63;10.88;;;;;;;11.89;76.23;101465.44;5061094;28;20036;-73
2022/01/05 04:34:57;;;;;;;19.38;10.43;;;;;;;11.90;76.35;101465.47;5067038;28;20582;-73
2022/01/05 04:37:26;;;;;;;14.13;7.30;;;;;;;11.91;76.32;101464.63;5068901;28;20111;-73
2022/01/05 04:39:55;;;;;;;13.65;6.57;;;;;;;11.90;76.23;101464.59;5067298;28;20650;-73
2022/01/05 04:42:22;;;;;;;10.85;4.72;;;;;;;11.88;76.31;101464.53;5066377;28;20062;-73
2022/01/05 04:44:50;;;;;;;12.70;5.47;;;;;;;11.82;76.15;101468.81;5067876;28;20044;-73
2022/01/05 04:47:18;;;;;;;8.30;3.85;;;;;;;11.67;76.23;101476.41;5066906;28;20032;-73
2022/01/05 04:49:46;;;;;;;11.32;5.55;;;;;;;11.56;76.48;101469.09;5067218;28;20098;-71
2022/01/05 04:52:14;;;;;;;9.63;5.40;;;;;;;11.55;76.57;101469.94;5068338;28;20040;-71
2022/01/05 04:54:43;;;;;;;14.82;7.35;;;;;;;11.65;76.55;101472.81;5066384;28;20052;-70
2022/01/05 04:57:11;;;;;;;11.73;6.15;;;;;;;11.70;76.42;101466.75;5067401;28;20045;-71
2022/01/05 04:59:38;;;;;;;12.63;6.05;;;;;;;11.71;76.25;101467.66;5067597;28;20369;-71
2022/01/05 05:02:06;;;;;;;12.40;4.85;;;;;;;11.75;76.21;101466.94;5082009;28;20049;-73
2022/01/05 05:04:34;;;;;;;8.25;3.80;;;;;;;11.77;76.17;101468.72;5083645;28;20122;-74
2022/01/05 05:07:02;;;;;;;13.65;5.72;;;;;;;11.74;76.18;101473.97;5067101;28;20129;-74
2022/01/05 05:09:30;;;;;;;9.90;5.03;;;;;;;11.75;76.30;101478.38;5066764;28;20120;-73
2022/01/05 05:11:59;;;;;;;11.65;5.70;;;;;;;11.73;76.32;101466.84;5068093;28;20491;-74
2022/01/05 05:14:26;;;;;;;9.48;5.20;;;;;;;11.74;76.49;101473.06;5067176;28;20112;-73
2022/01/05 05:16:54;;;;;;;9.00;4.72;;;;;;;11.73;76.54;101464.19;5066602;28;20120;-74
2022/01/05 05:19:21;;;;;;;8.75;3.85;;;;;;;11.65;76.42;101471.06;5067081;28;20057;-73
2022/01/05 05:21:49;;;;;;;30.27;25.95;;;;;;;11.57;76.68;101473.53;5067742;28;20166;-73
2022/01/05 05:24:16;;;;;;;31.67;28.27;;;;;;;11.52;76.84;101466.34;5068130;28;20412;-73
2022/01/05 05:26:44;;;;;;;44.30;37.13;;;;;;;11.41;76.87;101474.06;5070391;28;20082;-73
2022/01/05 05:29:14;;;;;;;73.00;65.22;;;;;;;11.32;77.05;101465.00;5070316;28;20072;-73
2022/01/05 05:31:41;;;;;;;48.72;43.40;;;;;;;11.37;77.03;101468.63;5069940;28;20041;-73
2022/01/05 05:34:09;;;;;;;36.00;30.08;;;;;;;11.24;76.87;101471.84;5070958;28;20044;-73
2022/01/05 05:36:36;;;;;;;48.05;42.88;;;;;;;11.17;77.17;101479.63;5069752;28;20106;-74
2022/01/05 05:39:04;;;;;;;27.73;24.63;;;;;;;11.23;77.35;101480.63;5070159;28;20036;-73
2022/01/05 05:41:32;;;;;;;29.08;25.95;;;;;;;11.33;77.32;101482.66;5070112;28;20051;-74
2022/01/05 05:43:59;;;;;;;33.42;28.83;;;;;;;11.37;77.16;101479.19;5057653;28;20125;-73
2022/01/05 05:46:28;;;;;;;31.02;22.13;;;;;;;11.46;77.19;101477.69;5069659;28;20128;-73
2022/01/05 05:48:56;;;;;;;38.67;22.58;;;;;;;11.56;76.99;101482.31;5071320;28;20050;-74
2022/01/05 05:51:24;;;;;;;38.45;23.70;;;;;;;11.61;77.06;101489.47;5086008;28;20041;-74
2022/01/05 05:53:52;;;;;;;28.98;16.50;;;;;;;11.65;77.13;101486.94;5053460;28;20048;-74
2022/01/05 05:56:19;;;;;;;23.27;12.32;;;;;;;11.75;77.32;101485.44;5069093;28;20051;-73
2022/01/05 05:58:47;;;;;;;21.55;11.88;;;;;;;11.82;77.24;101479.41;5067742;28;20047;-73
2022/01/05 06:01:15;;;;;;;17.25;10.90;;;;;;;11.75;77.21;101482.78;5071752;28;20045;-74
2022/01/05 06:03:45;;;;;;;12.05;7.30;;;;;;;11.74;77.35;101495.13;5066359;28;20040;-74
2022/01/05 06:06:13;;;;;;;11.50;6.40;;;;;;;11.71;77.43;101488.81;5070818;28;20033;-73
2022/01/05 06:08:41;;;;;;;14.88;8.32;;;;;;;11.74;77.63;101499.53;5069490;28;20467;-74
2022/01/05 06:11:08;;;;;;;53.72;36.20;;;;;;;11.87;77.48;101485.69;5070857;28;20041;-74
2022/01/05 06:13:36;;;;;;;15.52;9.43;;;;;;;11.97;77.46;101491.22;5070621;28;20048;-73
2022/01/05 06:16:04;;;;;;;19.42;13.30;;;;;;;12.09;77.54;101489.69;5070630;28;20041;-73
2022/01/05 06:18:32;;;;;;;21.63;12.50;;;;;;;12.17;77.43;101493.38;5068992;28;20135;-73
2022/01/05 06:21:01;;;;;;;24.95;16.92;;;;;;;12.16;77.39;101489.84;5053672;28;20123;-73
2022/01/05 06:23:28;;;;;;;24.30;17.05;;;;;;;12.16;77.47;101489.84;5062236;28;20116;-73
2022/01/05 06:25:56;;;;;;;25.95;16.65;;;;;;;12.18;77.61;101492.53;5078276;28;20052;-73
2022/01/05 06:28:24;;;;;;;26.27;19.40;;;;;;;12.31;77.75;101490.16;5062748;28;20037;-73
2022/01/05 06:30:52;;;;;;;26.95;17.95;;;;;;;12.50;77.59;101487.88;5075508;28;20045;-73
2022/01/05 06:33:19;;;;;;;23.20;15.95;;;;;;;12.64;77.26;101489.94;5068129;28;20056;-73
2022/01/05 06:35:47;;;;;;;11.80;7.70;;;;;;;12.71;76.78;101485.63;5068021;28;20047;-74
2022/01/05 06:38:16;;;;;;;18.63;11.68;;;;;;;12.64;76.40;101495.22;5053931;28;20087;-74
2022/01/05 06:40:44;;;;;;;10.90;6.22;;;;;;;12.57;76.62;101497.72;5055362;28;20120;-74
2022/01/05 06:43:12;;;;;;;16.42;10.57;;;;;;;12.58;76.70;101503.06;5068838;28;20086;-74
2022/01/05 06:45:39;;;;;;;15.95;10.40;;;;;;;12.62;76.82;101491.66;5069914;28;20056;-73
2022/01/05 06:48:07;;;;;;;22.63;8.55;;;;;;;12.68;76.87;101497.06;5067960;28;20119;-73
2022/01/05 06:50:35;;;;;;;13.10;7.43;;;;;;;12.70;76.86;101500.66;5070532;28;20055;-74
2022/01/05 06:53:03;;;;;;;12.60;8.13;;;;;;;12.72;76.91;101501.56;5068865;28;20048;-74
2022/01/05 06:55:32;;;;;;;9.45;5.45;;;;;;;12.73;76.91;101511.28;5068698;28;20045;-73
2022/01/05 06:58:00;;;;;;;11.23;5.20;;;;;;;12.74;76.99;101507.78;5057112;28;20065;-73
2022/01/05 07:00:28;;;;;;;7.55;4.30;;;;;;;12.78;76.82;101501.69;5084930;28;20033;-73
2022/01/05 07:02:56;;;;;;;10.15;6.95;;;;;;;12.84;76.82;101508.84;5067582;28;20037;-74
2022/01/05 07:05:24;;;;;;;18.30;10.68;;;;;;;12.94;76.88;101512.53;5080677;28;20053;-74
2022/01/05 07:07:51;;;;;;;22.27;12.38;;;;;;;13.06;77.01;101516.28;5065303;28;20051;-73
2022/01/05 07:10:19;;;;;;;24.08;10.57;;;;;;;13.23;77.13;101513.09;5069377;28;20037;-74
2022/01/05 07:12:49;;;;;;;18.50;11.65;;;;;;;13.59;77.26;101523.41;5067805;28;20131;-74
2022/01/05 07:15:17;;;;;;;19.55;10.02;;;;;;;13.88;77.27;101522.06;5068242;28;20447;-73
2022/01/05 07:17:45;;;;;;;16.30;10.23;;;;;;;14.08;77.40;101515.28;5083967;28;20048;-73
2022/01/05 07:20:13;;;;;;;20.30;10.90;;;;;;;14.31;77.54;101519.09;5068314;28;20061;-74
2022/01/05 07:22:40;;;;;;;17.80;9.75;;;;;;;14.49;77.19;101530.88;5064709;28;20051;-73
2022/01/05 07:25:09;;;;;;;14.57;7.38;;;;;;;14.57;76.66;101529.22;5067687;28;20091;-73
2022/01/05 07:27:37;;;;;;;18.08;11.05;;;;;;;14.71;76.70;101536.44;5068422;28;20559;-73
2022/01/05 07:30:09;;;;;;;11.30;6.60;;;;;;;14.88;76.62;101541.97;5068863;28;20546;-73
2022/01/05 07:32:36;;;;;;;13.10;6.45;;;;;;;15.03;75.89;101536.78;5068516;28;20048;-73
2022/01/05 07:35:05;;;;;;;11.77;6.03;;;;;;;15.06;75.16;101538.59;5064573;28;20036;-73
2022/01/05 07:37:32;;;;;;;12.38;8.38;;;;;;;15.14;74.61;101534.25;5069212;28;20116;-73
2022/01/05 07:40:00;;;;;;;10.38;5.82;;;;;;;15.25;73.89;101531.66;5068562;28;20117;-73
2022/01/05 07:42:33;;;;;;;9.88;3.92;;;;;;;15.42;73.61;101540.69;5068941;28;20426;-73
2022/01/05 07:45:01;;;;;;;9.20;4.18;;;;;;;15.69;73.23;101543.59;5067141;28;20044;-73
2022/01/05 07:47:30;;;;;;;11.77;4.10;;;;;;;15.78;72.95;101546.31;5069555;28;20501;-73
2022/01/05 07:49:58;;;;;;;8.82;4.40;;;;;;;15.95;72.99;101541.09;5066898;28;20040;-74
2022/01/05 07:52:26;;;;;;;7.68;3.53;;;;;;;16.41;73.31;101542.22;5065814;28;20049;-73
2022/01/05 07:54:54;;;;;;;6.03;2.92;;;;;;;16.95;73.64;101541.53;5068648;28;20098;-73
2022/01/05 07:57:21;;;;;;;7.60;3.10;;;;;;;17.32;73.21;101542.50;5067391;28;20051;-73
2022/01/05 07:59:49;;;;;;;9.68;2.83;;;;;;;17.52;73.81;101539.84;5067145;28;20053;-73
2022/01/05 08:02:17;;;;;;;6.32;2.80;;;;;;;17.63;72.03;101538.06;5068136;28;20043;-73
2022/01/05 08:04:49;;;;;;;6.32;3.28;;;;;;;17.54;70.50;101540.69;5050834;28;20048;-73
2022/01/05 08:07:16;;;;;;;9.98;5.32;;;;;;;17.22;70.93;101545.13;5067505;28;20063;-73
2022/01/05 08:09:44;;;;;;;12.80;8.45;;;;;;;16.99;71.02;101542.47;5066987;28;20086;-73
2022/01/05 08:12:13;;;;;;;10.00;5.22;;;;;;;16.98;70.70;101540.69;5067090;28;20043;-73
2022/01/05 08:14:40;;;;;;;7.40;4.35;;;;;;;17.08;70.51;101542.44;5067675;28;20250;-73
2022/01/05 08:17:08;;;;;;;8.20;4.50;;;;;;;17.28;70.56;101543.38;5068759;28;20123;-73
2022/01/05 08:19:36;;;;;;;5.20;2.85;;;;;;;17.32;70.45;101538.94;5068464;28;20074;-73
2022/01/05 08:22:06;;;;;;;4.65;2.88;;;;;;;17.20;69.84;101547.81;5068773;28;20044;-73
2022/01/05 08:24:33;;;;;;;6.97;3.33;;;;;;;17.03;69.19;101541.56;5068630;28;20040;-74
2022/01/05 08:27:01;;;;;;;8.27;3.58;;;;;;;16.89;68.74;101536.19;5068010;28;20043;-71
2022/01/05 08:29:28;;;;;;;7.38;2.90;;;;;;;16.78;68.49;101532.63;5066950;28;20107;-71
2022/01/05 08:31:56;;;;;;;6.03;2.70;;;;;;;16.69;67.96;101538.81;5066677;28;20044;-71
2022/01/05 08:34:23;;;;;;;7.63;4.53;;;;;;;16.59;67.86;101531.66;5057049;28;20049;-71
2022/01/05 08:36:51;;;;;;;10.18;5.38;;;;;;;16.52;67.77;101532.50;5068627;28;20051;-71
2022/01/05 08:39:20;;;;;;;7.32;4.07;;;;;;;16.48;67.81;101532.47;5068809;28;20036;-71
2022/01/05 08:41:48;;;;;;;11.00;5.53;;;;;;;16.44;67.96;101536.03;5056859;28;20419;-71
2022/01/05 08:44:15;;;;;;;13.18;7.40;;;;;;;16.46;68.11;101535.16;5047546;28;20048;-71
2022/01/05 08:46:43;;;;;;;13.63;5.60;;;;;;;16.45;67.89;101537.81;5066473;28;20057;-71
2022/01/05 08:49:11;;;;;;;8.48;4.25;;;;;;;16.51;67.62;101541.38;5049919;28;20116;-71
2022/01/05 08:51:39;;;;;;;9.13;4.50;;;;;;;16.61;67.22;101537.00;5068724;28;20040;-71
2022/01/05 08:54:07;;;;;;;12.80;5.25;;;;;;;16.73;66.77;101540.63;5066793;28;20033;-71
2022/01/05 08:56:37;;;;;;;14.77;8.23;;;;;;;16.83;66.25;101541.53;5066989;28;20511;-71
2022/01/05 08:59:05;;;;;;;24.25;12.52;;;;;;;16.93;66.23;101543.34;5068551;28;20571;-72
2022/01/05 09:01:32;;;;;;;15.35;7.85;;;;;;;17.04;66.38;101541.56;5069170;28;20071;-74
2022/01/05 09:04:00;;;;;;;11.27;5.85;;;;;;;17.09;66.67;101542.47;5070089;28;20044;-73
2022/01/05 09:06:28;;;;;;;10.68;5.72;;;;;;;17.23;66.62;101542.47;5050543;28;20086;-71
2022/01/05 09:08:56;;;;;;;22.83;9.35;;;;;;;17.39;66.50;101536.25;5051654;28;20051;-71
2022/01/05 09:11:23;;;;;;;15.23;7.88;;;;;;;17.59;66.24;101540.72;5041855;28;20048;-73
2022/01/05 09:13:52;;;;;;;30.45;13.57;;;;;;;17.76;66.64;101542.50;5049566;28;20075;-73
2022/01/05 09:16:20;;;;;;;17.40;8.55;;;;;;;17.89;66.55;101546.03;5046416;28;20037;-73
2022/01/05 09:18:48;;;;;;;11.98;5.03;;;;;;;17.99;65.95;101537.09;5050908;28;20068;-73
2022/01/05 09:21:16;;;;;;;13.93;5.60;;;;;;;18.04;65.48;101532.66;5043382;28;21177;-73
2022/01/05 09:23:44;;;;;;;10.15;3.38;;;;;;;18.14;65.33;101531.72;5038599;28;20533;-73
2022/01/05 09:26:12;;;;;;;7.95;4.25;;;;;;;18.22;64.83;101527.25;5013863;28;20613;-73
2022/01/05 09:28:43;;;;;;;4.85;2.08;;;;;;;18.23;64.30;101523.69;5031212;28;20146;-73
2022/01/05 09:31:13;;;;;;;5.72;2.60;;;;;;;18.23;64.03;101521.03;5030403;28;20041;-73
2022/01/05 09:33:41;;;;;;;7.97;2.88;;;;;;;18.19;64.00;101529.03;5039212;28;20065;-74
2022/01/05 09:36:14;;;;;;;7.15;2.60;;;;;;;18.17;63.97;101521.03;5046282;28;20052;-73
2022/01/05 09:44:13;;;;;;;15.13;5.90;;;;;;;18.14;63.21;101514.81;5031038;28;20498;-73
2022/01/05 09:47:10;;;;;;;10.95;5.55;;;;;;;18.18;63.42;101505.91;5029994;28;20046;-73
2022/01/05 09:49:43;;;;;;;7.68;4.50;;;;;;;18.21;63.20;101506.75;4999678;28;20049;-73
2022/01/05 09:52:12;;;;;;;13.50;6.47;;;;;;;18.21;62.89;101500.53;5047012;28;20125;-73
2022/01/05 09:54:42;;;;;;;8.07;3.67;;;;;;;18.22;62.86;101497.84;5031274;28;20069;-73
2022/01/05 09:57:11;;;;;;;19.13;8.40;;;;;;;18.20;62.64;101498.75;5046276;28;20465;-73
2022/01/05 09:59:39;;;;;;;25.42;12.60;;;;;;;18.19;62.50;101495.19;5029871;28;20041;-74
2022/01/05 10:02:07;;;;;;;42.88;21.67;;;;;;;18.23;62.64;101494.28;5030041;28;20045;-74
2022/01/05 10:04:37;;;;;;;28.42;15.80;;;;;;;18.31;62.54;101496.94;5029520;28;20171;-74
2022/01/05 10:07:09;;;;;;;13.98;6.30;;;;;;;18.33;62.64;101498.69;5013907;28;20134;-73
2022/01/05 10:09:38;;;;;;;9.60;3.17;;;;;;;18.38;62.60;101484.44;5030800;28;20080;-73
2022/01/05 10:12:07;;;;;;;7.15;3.10;;;;;;;18.42;62.48;101481.72;5030700;28;20077;-73
2022/01/05 10:14:34;;;;;;;5.97;2.40;;;;;;;18.52;62.22;101479.88;5031559;28;20045;-72
2022/01/05 10:17:04;;;;;;;8.13;2.60;;;;;;;18.58;62.09;101477.19;5046738;28;20037;-74
2022/01/05 10:19:33;;;;;;;6.53;2.70;;;;;;;18.60;61.80;101472.72;5030004;28;20049;-74
2022/01/05 10:22:00;;;;;;;6.13;2.88;;;;;;;18.60;61.82;101464.72;5029916;28;20061;-73
2022/01/05 10:24:44;;;;;;;5.45;2.00;;;;;;;18.59;60.92;101465.59;5029398;28;20041;-73
2022/01/05 10:27:18;;;;;;;3.17;1.95;;;;;;;18.51;60.73;101465.59;5029145;28;20041;-73
2022/01/05 10:29:57;;;;;;;7.00;2.60;;;;;;;18.45;61.00;101454.06;5029398;28;20136;-73
2022/01/05 10:32:26;;;;;;;7.25;2.53;;;;;;;18.33;61.22;101455.03;5029173;28;20045;-73
2022/01/05 10:35:08;;;;;;;7.80;2.85;;;;;;;18.33;61.34;101463.94;5029619;28;20068;-73
2022/01/05 10:37:37;;;;;;;7.45;2.28;;;;;;;18.30;61.08;101468.41;5045780;28;20402;-73
2022/01/05 10:40:17;;;;;;;11.02;3.30;;;;;;;18.34;61.57;101467.50;5058799;28;20122;-73
2022/01/05 10:42:45;;;;;;;6.22;2.67;;;;;;;18.35;61.46;101463.03;5050541;28;20071;-73
2022/01/05 10:45:16;;;;;;;5.40;2.20;;;;;;;18.45;61.63;101456.72;5048785;28;20048;-73
2022/01/05 10:48:01;;;;;;;6.05;1.80;;;;;;;18.51;61.53;101457.59;5049789;28;20466;-72
2022/01/05 10:50:29;;;;;;;4.20;1.67;;;;;;;18.59;61.35;101449.56;5042956;28;20124;-73
2022/01/05 10:52:58;;;;;;;5.05;2.60;;;;;;;18.54;61.08;101446.88;5031232;28;20244;-73
2022/01/05 10:55:29;;;;;;;4.15;1.95;;;;;;;18.58;61.45;101453.13;5051280;28;20052;-73
2022/01/05 10:58:01;;;;;;;6.43;2.67;;;;;;;18.59;61.59;101444.22;5059987;28;20529;-73
2022/01/05 11:00:38;;;;;;;10.57;3.40;;;;;;;18.63;61.44;101443.31;5066280;28;20055;-73
2022/01/05 11:03:23;;;;;;;9.02;3.17;;;;;;;18.68;61.38;101449.50;5058677;28;20127;-73
2022/01/05 11:06:09;;;;;;;6.60;2.38;;;;;;;18.70;61.46;101435.25;5062764;28;20052;-73
2022/01/05 11:08:50;;;;;;;6.35;2.83;;;;;;;18.68;61.67;101433.47;5066139;28;20045;-73
2022/01/05 11:11:38;;;;;;;10.20;3.22;;;;;;;18.64;61.57;101427.22;5065429;28;20047;-73
2022/01/05 11:14:08;;;;;;;6.07;2.50;;;;;;;18.58;61.51;101429.94;5045213;28;20520;-73
2022/01/05 11:16:39;;;;;;;6.95;2.53;;;;;;;18.53;61.27;101423.72;5049390;28;20053;-72
2022/01/05 11:19:16;;;;;;;6.82;2.30;;;;;;;18.52;61.22;101423.72;5039164;28;20749;-72
2022/01/05 11:22:06;;;;;;;6.93;2.40;;;;;;;18.51;60.89;101419.28;5045814;28;20175;-72
2022/01/05 11:24:37;;;;;;;5.78;2.00;;;;;;;18.56;60.91;101415.72;5042264;28;20044;-73
2022/01/05 11:27:08;;;;;;;5.22;2.20;;;;;;;18.61;60.68;101411.22;5060002;28;20652;-73
2022/01/05 11:29:37;;;;;;;9.43;2.58;;;;;;;18.63;60.63;101409.44;5047522;28;20128;-72
2022/01/05 11:32:06;;;;;;;7.03;2.10;;;;;;;18.66;60.59;101403.16;5047446;28;20198;-72
2022/01/05 11:34:35;;;;;;;10.20;2.88;;;;;;;18.68;60.78;101399.56;5042191;28;20039;-73
2022/01/05 11:37:03;;;;;;;7.70;3.00;;;;;;;18.77;60.89;101392.38;5053192;28;20451;-74